createdAt,value
2019-01-05T00:00:50.092Z,1.37
2019-01-05T00:06:36.970Z,1.50
2019-01-05T00:12:23.742Z,1.63
2019-01-05T00:15:16.376Z,1.57
2019-01-05T00:18:09.041Z,1.97
2019-01-05T00:21:22.480Z,1.70
2019-01-05T00:24:15.215Z,2.07
2019-01-05T00:27:28.625Z,1.80
2019-01-05T00:36:03.189Z,1.70
2019-01-05T00:39:16.614Z,1.50
2019-01-05T00:42:30.127Z,1.73
2019-01-05T00:45:22.998Z,2.50
2019-01-05T00:48:36.483Z,1.47
2019-01-05T00:51:49.892Z,4.33
2019-01-05T00:54:42.636Z,1.80
2019-01-05T01:00:29.554Z,1.63
2019-01-05T01:03:22.185Z,1.77
2019-01-05T01:06:14.963Z,1.20
2019-01-05T01:09:07.595Z,1.70
2019-01-05T01:12:00.258Z,1.57
2019-01-05T01:14:52.890Z,1.40
2019-01-05T01:17:45.638Z,2.17
2019-01-05T01:20:38.318Z,1.07
2019-01-05T01:23:51.782Z,3.97
2019-01-05T01:29:38.522Z,1.37
2019-01-05T01:32:31.189Z,1.20
2019-01-05T01:35:23.987Z,1.00
2019-01-05T01:38:55.211Z,0.97
2019-01-05T01:42:08.886Z,3.77
2019-01-05T01:45:22.294Z,1.03
2019-01-05T01:48:35.825Z,0.80
2019-01-05T01:54:22.631Z,1.03
2019-01-05T01:57:36.056Z,0.77
2019-01-05T02:00:49.521Z,1.17
2019-01-05T02:03:42.164Z,0.70
2019-01-05T02:06:55.605Z,0.70
2019-01-05T02:10:09.015Z,0.80
2019-01-05T02:13:22.514Z,0.70
2019-01-05T02:16:36.008Z,2.43
2019-01-05T02:19:49.417Z,0.80
2019-01-05T02:23:02.928Z,0.93
2019-01-05T02:26:16.428Z,0.60
2019-01-05T02:29:47.702Z,0.57
2019-01-05T02:33:01.128Z,0.90
2019-01-05T02:36:32.375Z,0.60
2019-01-05T02:40:03.623Z,0.50
2019-01-05T02:43:34.828Z,0.80
2019-01-05T02:47:06.109Z,0.60
2019-01-05T02:50:19.583Z,0.53
2019-01-05T02:53:50.850Z,0.57
2019-01-05T02:57:22.093Z,0.60
2019-01-05T03:00:53.303Z,1.07
2019-01-05T03:04:24.549Z,1.03
2019-01-05T03:07:55.795Z,0.50
2019-01-05T03:11:27.037Z,1.33
2019-01-05T03:14:40.819Z,0.87
2019-01-05T03:17:54.287Z,0.60
2019-01-05T03:21:08.043Z,0.87
2019-01-05T03:24:21.500Z,0.50
2019-01-05T03:27:52.796Z,0.50
2019-01-05T03:31:24.056Z,1.07
2019-01-05T03:34:55.304Z,0.83
2019-01-05T03:38:26.515Z,0.63
2019-01-05T03:41:57.767Z,0.83
2019-01-05T03:45:29.085Z,1.43
2019-01-05T03:48:42.567Z,1.07
2019-01-05T03:52:13.819Z,1.40
2019-01-05T03:55:45.014Z,2.67
2019-01-05T03:59:16.270Z,0.87
2019-01-05T04:02:29.719Z,1.37
2019-01-05T04:06:00.942Z,1.07
2019-01-05T04:09:14.456Z,1.63
2019-01-05T04:12:28.204Z,2.03
2019-01-05T04:15:41.969Z,1.67
2019-01-05T04:19:13.392Z,0.90
2019-01-05T04:22:44.615Z,5.20
2019-01-05T04:25:58.104Z,1.53
2019-01-05T04:29:29.324Z,2.27
2019-01-05T04:32:42.776Z,1.73
2019-01-05T04:35:56.186Z,2.70
2019-01-05T04:39:09.692Z,0.80
2019-01-05T04:45:50.392Z,2.93
2019-01-05T04:49:21.616Z,1.70
2019-01-05T04:52:35.376Z,1.20
2019-01-05T04:59:12.184Z,1.20
2019-01-05T05:02:25.631Z,0.60
2019-01-05T05:05:39.360Z,0.83
2019-01-05T05:09:10.615Z,1.27
2019-01-05T05:12:24.407Z,2.27
2019-01-05T05:15:37.846Z,1.03
2019-01-05T05:18:51.286Z,1.20
2019-01-05T05:22:04.688Z,1.03
2019-01-05T05:25:35.938Z,1.70
2019-01-05T05:28:49.670Z,1.00
2019-01-05T05:32:03.417Z,1.37
2019-01-05T05:35:17.150Z,1.80
2019-01-05T05:38:48.395Z,2.20
2019-01-05T05:42:19.611Z,1.10
2019-01-05T05:45:33.377Z,2.03
2019-01-05T05:49:04.839Z,0.90
2019-01-05T05:52:18.566Z,3.77
2019-01-05T05:55:32.013Z,0.90
2019-01-05T05:59:03.228Z,1.10
2019-01-05T06:02:16.985Z,1.27
2019-01-05T06:05:30.453Z,1.90
2019-01-05T06:08:44.227Z,3.57
2019-01-05T06:11:57.974Z,1.57
2019-01-05T06:15:11.440Z,1.03
2019-01-05T06:18:25.032Z,1.83
2019-01-05T06:32:05.356Z,4.77
2019-01-05T06:35:19.150Z,5.23
2019-01-05T06:38:32.556Z,6.27
2019-01-05T06:41:46.048Z,3.67
2019-01-05T06:45:17.391Z,1.87
2019-01-05T06:48:30.830Z,6.27
2019-01-05T06:51:44.331Z,4.23
2019-01-05T06:55:15.548Z,1.77
2019-01-05T06:58:28.996Z,3.13
2019-01-05T07:02:00.210Z,1.77
2019-01-05T07:05:13.713Z,7.13
2019-01-05T07:08:27.235Z,2.27
2019-01-05T07:11:41.023Z,5.60
2019-01-05T07:15:12.269Z,4.00
2019-01-05T07:18:25.740Z,2.27
2019-01-05T07:21:57.069Z,3.10
2019-01-05T07:25:28.312Z,4.70
2019-01-05T07:28:59.525Z,2.67
2019-01-05T07:32:12.984Z,1.97
2019-01-05T07:35:26.711Z,3.37
2019-01-05T07:38:57.961Z,3.93
2019-01-05T07:42:11.685Z,3.67
2019-01-05T07:45:42.939Z,4.47
2019-01-05T07:48:56.728Z,3.83
2019-01-05T07:52:10.486Z,3.57
2019-01-05T07:55:23.997Z,3.87
2019-01-05T08:02:30.644Z,3.30
2019-01-05T08:06:01.860Z,2.03
2019-01-05T08:09:15.358Z,3.10
2019-01-05T08:12:28.822Z,7.70
2019-01-05T08:15:42.362Z,3.60
2019-01-05T08:19:13.543Z,5.13
2019-01-05T08:22:26.988Z,4.43
2019-01-05T08:25:58.241Z,4.43
2019-01-05T08:33:05.118Z,2.77
2019-01-05T08:36:36.396Z,2.07
2019-01-05T08:40:07.739Z,2.23
2019-01-05T08:43:38.996Z,5.53
2019-01-05T08:54:10.961Z,3.50
2019-01-05T08:57:42.212Z,2.13
2019-01-05T09:01:13.460Z,2.30
2019-01-05T09:04:26.928Z,2.60
2019-01-05T09:11:20.005Z,3.17
2019-01-05T09:14:51.207Z,2.37
2019-01-05T09:18:22.466Z,3.90
2019-01-05T09:21:36.299Z,4.83
2019-01-05T09:24:49.777Z,5.73
2019-01-05T09:28:03.234Z,2.40
2019-01-05T09:31:34.453Z,4.40
2019-01-05T09:35:05.709Z,4.43
2019-01-05T09:38:36.965Z,3.50
2019-01-05T09:42:08.187Z,4.57
2019-01-05T09:45:21.925Z,5.93
2019-01-05T09:48:53.211Z,4.10
2019-01-05T09:52:06.636Z,6.77
2019-01-05T09:55:20.422Z,5.40
2019-01-05T09:58:34.157Z,8.40
2019-01-05T10:01:47.606Z,4.33
2019-01-05T10:05:01.027Z,4.73
2019-01-05T10:08:14.483Z,5.67
2019-01-05T10:11:27.994Z,5.77
2019-01-05T10:14:41.501Z,8.97
2019-01-05T10:17:54.919Z,6.13
2019-01-05T10:24:52.148Z,8.20
2019-01-05T10:28:23.403Z,10.90
2019-01-05T10:31:37.163Z,8.43
2019-01-05T10:35:08.379Z,7.70
2019-01-05T10:38:22.157Z,9.70
2019-01-05T10:41:35.662Z,8.30
2019-01-05T10:44:49.134Z,8.00
2019-01-05T10:48:20.389Z,5.67
2019-01-05T10:51:51.643Z,11.53
2019-01-05T10:55:22.864Z,10.33
2019-01-05T10:58:54.075Z,12.63
2019-01-05T11:05:29.831Z,13.60
2019-01-05T11:08:43.555Z,10.70
2019-01-05T11:12:14.812Z,14.43
2019-01-05T11:15:46.321Z,14.40
2019-01-05T11:19:00.173Z,17.23
2019-01-05T11:25:49.063Z,18.33
2019-01-05T11:29:20.340Z,15.33
2019-01-05T11:32:51.589Z,13.43
2019-01-05T11:36:05.102Z,16.23
2019-01-05T11:39:36.454Z,21.20
2019-01-05T11:42:50.199Z,16.67
2019-01-05T11:46:03.970Z,14.27
2019-01-05T11:49:17.387Z,17.53
2019-01-05T11:55:52.488Z,14.77
2019-01-05T11:59:23.740Z,13.57
2019-01-05T12:02:37.177Z,16.20
2019-01-05T12:06:08.408Z,17.20
2019-01-05T12:09:21.872Z,17.80
2019-01-05T12:12:53.098Z,19.53
2019-01-05T12:16:06.568Z,16.83
2019-01-05T12:19:38.970Z,13.17
2019-01-05T12:22:52.740Z,13.70
2019-01-05T12:26:06.472Z,20.73
2019-01-05T12:29:37.796Z,16.90
2019-01-05T12:32:51.285Z,14.90
2019-01-05T12:36:05.061Z,18.17
2019-01-05T12:42:53.935Z,10.77
2019-01-05T12:46:07.398Z,16.03
2019-01-05T12:49:20.926Z,14.10
2019-01-05T12:56:10.053Z,17.37
2019-01-05T12:59:23.795Z,18.63
2019-01-05T13:02:55.047Z,16.97
2019-01-05T13:06:08.791Z,19.93
2019-01-05T13:09:22.233Z,23.23
2019-01-05T13:12:53.498Z,18.67
2019-01-05T13:16:07.243Z,22.73
2019-01-05T13:19:38.508Z,23.60
2019-01-05T13:23:09.729Z,20.37
2019-01-05T13:26:23.516Z,22.53
2019-01-05T13:29:37.085Z,23.57
2019-01-05T13:32:50.636Z,20.43
2019-01-05T13:36:21.866Z,28.67
2019-01-05T13:39:53.121Z,24.30
2019-01-05T13:43:06.851Z,21.13
2019-01-05T13:46:20.304Z,24.43
2019-01-05T13:49:33.718Z,22.33
2019-01-05T13:52:47.171Z,29.00
2019-01-05T13:56:00.658Z,30.83
2019-01-05T13:58:53.304Z,23.23
2019-01-05T14:01:45.990Z,26.97
2019-01-05T14:04:38.656Z,23.53
2019-01-05T14:07:31.261Z,30.50
2019-01-05T14:10:44.690Z,28.47
2019-01-05T14:13:37.366Z,38.37
2019-01-05T14:16:30.013Z,31.77
2019-01-05T14:19:22.770Z,29.63
2019-01-05T14:22:15.429Z,35.10
2019-01-05T14:25:08.108Z,32.17
2019-01-05T14:28:07.915Z,37.60
2019-01-05T14:33:45.060Z,35.60
2019-01-05T14:42:15.669Z,33.63
2019-01-05T14:47:49.027Z,34.87
2019-01-05T14:50:41.702Z,36.93
2019-01-05T14:53:34.379Z,41.00
2019-01-05T14:56:27.025Z,36.03
2019-01-05T14:59:19.707Z,40.37
2019-01-05T15:02:12.351Z,31.60
2019-01-05T15:05:05.027Z,41.40
2019-01-05T15:10:51.792Z,34.40
2019-01-05T15:13:44.350Z,36.47
2019-01-05T15:19:33.335Z,37.47
2019-01-05T15:22:26.116Z,39.10
2019-01-05T15:25:18.766Z,39.50
2019-01-05T15:28:11.458Z,38.43
2019-01-05T15:30:58.458Z,39.40
2019-01-05T15:33:51.142Z,35.77
2019-01-05T15:36:43.803Z,30.73
2019-01-05T15:39:36.466Z,33.37
2019-01-05T15:42:29.116Z,39.77
2019-01-05T15:45:21.791Z,36.33
2019-01-05T15:48:14.358Z,42.50
2019-01-05T15:51:07.045Z,40.83
2019-01-05T15:53:59.698Z,36.67
2019-01-05T15:59:33.108Z,36.37
2019-01-05T16:02:25.775Z,38.73
2019-01-05T16:07:59.153Z,40.53
2019-01-05T16:10:51.820Z,30.97
2019-01-05T16:13:44.582Z,35.40
2019-01-05T16:16:37.257Z,41.47
2019-01-05T16:19:30.174Z,37.40
2019-01-05T16:22:22.841Z,36.43
2019-01-05T16:25:15.536Z,33.33
2019-01-05T16:31:02.314Z,42.23
2019-01-05T16:33:54.957Z,40.23
2019-01-05T16:36:47.569Z,31.40
2019-01-05T16:39:40.213Z,47.47
2019-01-05T16:42:32.890Z,37.23
2019-01-05T16:48:31.221Z,37.23
2019-01-05T16:54:18.013Z,42.43
2019-01-05T17:00:04.807Z,43.63
2019-01-05T17:02:57.460Z,41.90
2019-01-05T17:05:50.284Z,33.27
2019-01-05T17:08:42.886Z,36.30
2019-01-05T17:11:35.637Z,40.03
2019-01-05T17:14:28.273Z,39.30
2019-01-05T17:17:21.031Z,40.10
2019-01-05T17:20:13.679Z,40.37
2019-01-05T17:23:06.453Z,46.30
2019-01-05T17:28:53.252Z,36.90
2019-01-05T17:31:45.820Z,45.27
2019-01-05T17:37:22.632Z,39.17
2019-01-05T17:43:09.507Z,38.03
2019-01-05T17:48:56.298Z,36.30
2019-01-05T17:54:43.099Z,37.67
2019-01-05T17:57:35.726Z,45.77
2019-01-05T18:00:28.453Z,44.80
2019-01-05T18:03:21.083Z,45.03
2019-01-05T18:08:54.340Z,44.03
2019-01-05T18:11:46.970Z,34.57
2019-01-05T18:14:39.633Z,45.10
2019-01-05T18:17:32.204Z,42.40
2019-01-05T18:20:24.902Z,46.63
2019-01-05T18:23:17.557Z,36.53
2019-01-05T18:26:10.338Z,35.33
2019-01-05T18:29:02.981Z,43.33
2019-01-05T18:34:39.687Z,48.20
2019-01-05T18:40:47.247Z,37.10
2019-01-05T18:43:39.843Z,48.30
2019-01-05T18:51:57.143Z,46.87
2019-01-05T18:54:49.833Z,37.30
2019-01-05T19:00:36.553Z,42.00
2019-01-05T19:03:29.193Z,50.83
2019-01-05T19:06:21.931Z,46.37
2019-01-05T19:09:14.553Z,48.63
2019-01-05T19:12:08.743Z,51.87
2019-01-05T19:17:42.149Z,45.00
2019-01-05T19:20:34.826Z,37.30
2019-01-05T19:23:27.502Z,48.73
2019-01-05T19:26:20.172Z,34.33
2019-01-05T19:31:53.192Z,38.50
2019-01-05T19:34:45.864Z,44.57
2019-01-05T19:40:18.675Z,37.60
2019-01-05T19:43:11.356Z,44.10
2019-01-05T19:48:58.120Z,41.23
2019-01-05T19:51:50.768Z,42.03
2019-01-05T19:54:43.460Z,37.20
2019-01-05T19:57:36.112Z,42.37
2019-01-05T20:00:28.952Z,35.57
2019-01-05T20:03:21.629Z,43.53
2019-01-05T20:06:14.320Z,42.53
2019-01-05T20:09:06.973Z,46.20
2019-01-05T20:11:59.665Z,46.07
2019-01-05T20:14:52.320Z,44.13
2019-01-05T20:17:45.005Z,35.50
2019-01-05T20:20:37.667Z,51.83
2019-01-05T20:23:30.355Z,52.00
2019-01-05T20:32:00.998Z,45.43
2019-01-05T20:34:53.725Z,43.00
2019-01-05T20:37:46.384Z,42.00
2019-01-05T20:43:19.709Z,48.43
2019-01-05T20:46:12.576Z,46.30
2019-01-05T20:49:05.212Z,45.97
2019-01-05T20:51:58.063Z,47.43
2019-01-05T20:57:44.874Z,43.70
2019-01-05T21:00:37.517Z,39.17
2019-01-05T21:06:10.655Z,41.07
2019-01-05T21:11:57.500Z,47.70
2019-01-05T21:14:50.136Z,41.53
2019-01-05T21:17:42.828Z,57.20
2019-01-05T21:20:35.902Z,33.50
2019-01-05T21:26:08.897Z,47.57
2019-01-05T21:29:01.642Z,51.00
2019-01-05T21:31:54.343Z,41.43
2019-01-05T21:34:46.989Z,34.10
2019-01-05T21:37:39.765Z,37.17
2019-01-05T21:40:32.411Z,41.97
2019-01-05T21:46:09.000Z,38.47
2019-01-05T21:49:02.063Z,42.37
2019-01-05T22:00:16.466Z,43.97
2019-01-05T22:06:03.344Z,40.93
2019-01-05T22:08:56.077Z,37.13
2019-01-05T22:11:48.811Z,40.80
2019-01-05T22:14:41.455Z,37.70
2019-01-05T22:17:34.340Z,42.10
2019-01-05T22:20:26.984Z,38.70
2019-01-05T22:23:19.788Z,40.13
2019-01-05T22:26:12.632Z,36.43
2019-01-05T22:29:05.603Z,31.23
2019-01-05T22:31:58.243Z,38.47
2019-01-05T22:34:51.022Z,39.27
2019-01-05T22:37:43.884Z,35.57
2019-01-05T22:40:37.189Z,43.40
2019-01-05T22:43:30.058Z,36.00
2019-01-05T22:46:23.170Z,41.63
2019-01-05T22:49:35.147Z,45.40
2019-01-05T22:52:27.880Z,30.67
2019-01-05T22:55:20.543Z,35.20
2019-01-05T22:58:13.351Z,32.40
2019-01-05T23:06:44.338Z,28.53
2019-01-05T23:12:50.229Z,28.00
2019-01-05T23:15:42.868Z,35.03
2019-01-05T23:18:35.653Z,29.07
2019-01-05T23:24:22.468Z,29.00
2019-01-05T23:27:15.142Z,33.83
2019-01-05T23:30:07.871Z,33.43
2019-01-05T23:35:54.689Z,27.83
2019-01-05T23:38:49.849Z,22.97
2019-01-05T23:41:36.158Z,25.57
2019-01-05T23:44:28.810Z,27.47
2019-01-05T23:47:21.485Z,18.20
2019-01-05T23:50:16.734Z,21.23
2019-01-05T23:53:09.436Z,30.00
2019-01-05T23:56:02.107Z,21.23
2019-01-05T23:58:54.783Z,37.20
